sensor_id;sensor_type;location;lat;lon;timestamp;pressure;altitude;pressure_sealevel;temperature;humidity
84775;BME280;75005;50.966;11.344;2024-03-23T00:54:06;98408.50;;;5.81;88.39
84775;BME280;75005;50.966;11.344;2024-03-23T00:56:32;98414.94;;;5.85;87.05
84775;BME280;75005;50.966;11.344;2024-03-23T00:58:57;98410.38;;;5.95;86.89
84775;BME280;75005;50.966;11.344;2024-03-23T01:01:22;98394.63;;;5.82;86.91
84775;BME280;75005;50.966;11.344;2024-03-23T01:03:48;98392.13;;;5.96;86.24
84775;BME280;75005;50.966;11.344;2024-03-23T01:06:13;98396.22;;;5.91;87.40
84775;BME280;75005;50.966;11.344;2024-03-23T01:08:38;98396.94;;;5.68;88.19
84775;BME280;75005;50.966;11.344;2024-03-23T01:11:04;98400.63;;;5.74;88.56
84775;BME280;75005;50.966;11.344;2024-03-23T01:13:29;98405.19;;;5.95;87.74
84775;BME280;75005;50.966;11.344;2024-03-23T01:15:55;98398.88;;;5.97;87.11
84775;BME280;75005;50.966;11.344;2024-03-23T01:18:22;98388.28;;;6.15;86.87
84775;BME280;75005;50.966;11.344;2024-03-23T01:20:48;98390.94;;;6.07;87.35
84775;BME280;75005;50.966;11.344;2024-03-23T01:23:14;98393.81;;;6.12;86.99
84775;BME280;75005;50.966;11.344;2024-03-23T01:25:39;98383.06;;;6.23;87.14
84775;BME280;75005;50.966;11.344;2024-03-23T01:28:05;98376.25;;;6.30;86.68
84775;BME280;75005;50.966;11.344;2024-03-23T01:30:34;98384.53;;;6.41;86.49
84775;BME280;75005;50.966;11.344;2024-03-23T01:33:00;98367.38;;;6.48;86.00
84775;BME280;75005;50.966;11.344;2024-03-23T01:35:25;98364.84;;;6.40;87.08
84775;BME280;75005;50.966;11.344;2024-03-23T01:37:51;98358.53;;;6.42;86.37
84775;BME280;75005;50.966;11.344;2024-03-23T01:40:17;98365.91;;;6.30;87.20
84775;BME280;75005;50.966;11.344;2024-03-23T01:42:42;98355.56;;;6.30;86.93
84775;BME280;75005;50.966;11.344;2024-03-23T01:45:09;98356.09;;;6.41;86.59
84775;BME280;75005;50.966;11.344;2024-03-23T01:47:35;98345.09;;;6.47;85.90
84775;BME280;75005;50.966;11.344;2024-03-23T01:50:01;98337.31;;;6.47;85.65
84775;BME280;75005;50.966;11.344;2024-03-23T01:52:26;98338.09;;;6.32;85.96
84775;BME280;75005;50.966;11.344;2024-03-23T01:54:55;98324.34;;;6.17;87.12
84775;BME280;75005;50.966;11.344;2024-03-23T01:57:21;98319.88;;;6.11;87.37
84775;BME280;75005;50.966;11.344;2024-03-23T01:59:47;98320.28;;;6.00;88.68
84775;BME280;75005;50.966;11.344;2024-03-23T02:02:13;98315.44;;;5.97;88.76
84775;BME280;75005;50.966;11.344;2024-03-23T02:04:38;98316.44;;;5.96;88.49
84775;BME280;75005;50.966;11.344;2024-03-23T02:07:05;98322.06;;;5.99;88.48
84775;BME280;75005;50.966;11.344;2024-03-23T02:09:31;98302.06;;;6.16;87.97
84775;BME280;75005;50.966;11.344;2024-03-23T02:11:57;98297.50;;;6.03;88.11
84775;BME280;75005;50.966;11.344;2024-03-23T02:14:22;98305.53;;;5.86;88.80
84775;BME280;75005;50.966;11.344;2024-03-23T02:16:47;98298.28;;;5.81;89.23
84775;BME280;75005;50.966;11.344;2024-03-23T02:19:13;98297.31;;;5.82;89.77
84775;BME280;75005;50.966;11.344;2024-03-23T02:21:38;98274.53;;;5.86;88.76
84775;BME280;75005;50.966;11.344;2024-03-23T02:24:04;98277.44;;;5.91;88.84
84775;BME280;75005;50.966;11.344;2024-03-23T02:26:29;98284.13;;;5.77;88.81
84775;BME280;75005;50.966;11.344;2024-03-23T02:28:55;98281.53;;;5.77;89.48
84775;BME280;75005;50.966;11.344;2024-03-23T02:31:20;98266.78;;;5.86;88.30
84775;BME280;75005;50.966;11.344;2024-03-23T02:33:45;98269.53;;;5.92;87.52
84775;BME280;75005;50.966;11.344;2024-03-23T02:36:11;98265.50;;;5.90;88.70
84775;BME280;75005;50.966;11.344;2024-03-23T02:38:36;98263.56;;;5.92;87.85
84775;BME280;75005;50.966;11.344;2024-03-23T02:41:04;98250.56;;;6.00;88.13
84775;BME280;75005;50.966;11.344;2024-03-23T02:43:30;98258.94;;;6.02;87.66
84775;BME280;75005;50.966;11.344;2024-03-23T02:45:56;98251.13;;;6.10;87.84
84775;BME280;75005;50.966;11.344;2024-03-23T02:48:21;98246.34;;;6.22;88.14
84775;BME280;75005;50.966;11.344;2024-03-23T02:50:47;98253.03;;;6.31;87.08
84775;BME280;75005;50.966;11.344;2024-03-23T02:53:12;98243.75;;;6.22;87.32
84775;BME280;75005;50.966;11.344;2024-03-23T02:55:37;98238.75;;;6.20;87.29
84775;BME280;75005;50.966;11.344;2024-03-23T02:58:03;98252.81;;;6.32;87.06
84775;BME280;75005;50.966;11.344;2024-03-23T03:00:28;98245.97;;;6.40;87.80
84775;BME280;75005;50.966;11.344;2024-03-23T03:02:54;98252.50;;;6.50;86.73
84775;BME280;75005;50.966;11.344;2024-03-23T03:05:19;98261.13;;;6.87;85.20
84775;BME280;75005;50.966;11.344;2024-03-23T03:07:45;98262.47;;;6.97;84.66
84775;BME280;75005;50.966;11.344;2024-03-23T03:10:10;98261.38;;;6.92;84.60
84775;BME280;75005;50.966;11.344;2024-03-23T03:12:48;98242.41;;;6.70;85.72
84775;BME280;75005;50.966;11.344;2024-03-23T03:15:13;98219.25;;;6.62;86.13
84775;BME280;75005;50.966;11.344;2024-03-23T03:17:38;98210.94;;;6.81;86.12
84775;BME280;75005;50.966;11.344;2024-03-23T03:20:04;98207.44;;;6.74;86.12
84775;BME280;75005;50.966;11.344;2024-03-23T03:22:30;98201.06;;;7.06;85.57
84775;BME280;75005;50.966;11.344;2024-03-23T03:24:55;98192.19;;;7.15;84.64
84775;BME280;75005;50.966;11.344;2024-03-23T03:27:21;98178.47;;;7.15;84.68
84775;BME280;75005;50.966;11.344;2024-03-23T03:29:47;98171.69;;;7.14;84.58
84775;BME280;75005;50.966;11.344;2024-03-23T03:32:13;98164.19;;;6.97;85.31
84775;BME280;75005;50.966;11.344;2024-03-23T03:34:38;98167.22;;;6.86;86.42
84775;BME280;75005;50.966;11.344;2024-03-23T03:37:03;98165.19;;;6.82;86.93
84775;BME280;75005;50.966;11.344;2024-03-23T03:39:29;98164.13;;;6.76;88.18
84775;BME280;75005;50.966;11.344;2024-03-23T03:41:55;98156.44;;;6.83;87.28
84775;BME280;75005;50.966;11.344;2024-03-23T03:44:20;98149.94;;;6.87;88.04
84775;BME280;75005;50.966;11.344;2024-03-23T03:46:45;98150.63;;;6.95;87.46
84775;BME280;75005;50.966;11.344;2024-03-23T03:49:11;98142.13;;;7.01;87.81
84775;BME280;75005;50.966;11.344;2024-03-23T03:51:36;98140.03;;;6.90;88.10
84775;BME280;75005;50.966;11.344;2024-03-23T03:54:01;98142.13;;;7.01;88.00
84775;BME280;75005;50.966;11.344;2024-03-23T03:56:27;98138.59;;;7.09;86.86
84775;BME280;75005;50.966;11.344;2024-03-23T03:58:52;98131.09;;;7.14;86.53
84775;BME280;75005;50.966;11.344;2024-03-23T04:01:18;98131.53;;;7.18;86.80
84775;BME280;75005;50.966;11.344;2024-03-23T04:03:43;98147.41;;;7.15;87.29
84775;BME280;75005;50.966;11.344;2024-03-23T04:06:12;98133.38;;;7.24;87.51
84775;BME280;75005;50.966;11.344;2024-03-23T04:08:37;98125.25;;;7.27;87.70
84775;BME280;75005;50.966;11.344;2024-03-23T04:11:03;98110.75;;;7.32;87.08
84775;BME280;75005;50.966;11.344;2024-03-23T04:13:28;98114.16;;;7.33;87.91
84775;BME280;75005;50.966;11.344;2024-03-23T04:15:55;98102.06;;;7.40;88.02
84775;BME280;75005;50.966;11.344;2024-03-23T04:18:21;98103.66;;;7.69;87.04
84775;BME280;75005;50.966;11.344;2024-03-23T04:20:47;98089.09;;;7.96;85.29
84775;BME280;75005;50.966;11.344;2024-03-23T04:23:12;98078.50;;;7.91;85.60
84775;BME280;75005;50.966;11.344;2024-03-23T04:25:38;98076.59;;;7.71;86.58
84775;BME280;75005;50.966;11.344;2024-03-23T04:28:03;98071.34;;;7.58;88.58
84775;BME280;75005;50.966;11.344;2024-03-23T04:30:29;98073.69;;;7.53;88.55
84775;BME280;75005;50.966;11.344;2024-03-23T04:32:55;98087.16;;;7.42;89.39
84775;BME280;75005;50.966;11.344;2024-03-23T04:35:22;98091.84;;;7.32;89.62
84775;BME280;75005;50.966;11.344;2024-03-23T04:37:53;98091.56;;;7.48;89.50
84775;BME280;75005;50.966;11.344;2024-03-23T04:40:19;98075.28;;;7.54;89.28
84775;BME280;75005;50.966;11.344;2024-03-23T04:42:44;98067.66;;;7.46;90.15
84775;BME280;75005;50.966;11.344;2024-03-23T04:45:10;98048.91;;;7.44;90.50
84775;BME280;75005;50.966;11.344;2024-03-23T04:47:36;98037.94;;;7.35;91.61
84775;BME280;75005;50.966;11.344;2024-03-23T04:50:02;98048.91;;;7.44;92.19
84775;BME280;75005;50.966;11.344;2024-03-23T04:52:28;98038.97;;;7.41;92.06
84775;BME280;75005;50.966;11.344;2024-03-23T04:54:54;98039.03;;;7.54;91.93
84775;BME280;75005;50.966;11.344;2024-03-23T04:57:19;98016.22;;;7.64;90.45
84775;BME280;75005;50.966;11.344;2024-03-23T04:59:45;98009.94;;;7.52;91.21
84775;BME280;75005;50.966;11.344;2024-03-23T05:02:10;98008.81;;;7.61;91.00
84775;BME280;75005;50.966;11.344;2024-03-23T05:04:35;97995.91;;;7.68;90.83
84775;BME280;75005;50.966;11.344;2024-03-23T05:07:02;97988.72;;;7.63;91.18
84775;BME280;75005;50.966;11.344;2024-03-23T05:09:27;97987.72;;;7.64;91.33
84775;BME280;75005;50.966;11.344;2024-03-23T05:11:55;97972.22;;;7.71;92.33
84775;BME280;75005;50.966;11.344;2024-03-23T05:14:20;97960.47;;;7.68;91.77
84775;BME280;75005;50.966;11.344;2024-03-23T05:16:46;97956.25;;;7.61;92.77
84775;BME280;75005;50.966;11.344;2024-03-23T05:19:11;97950.03;;;7.55;91.45
84775;BME280;75005;50.966;11.344;2024-03-23T05:21:37;97967.00;;;7.64;92.55
84775;BME280;75005;50.966;11.344;2024-03-23T05:24:02;97965.00;;;7.60;91.98
84775;BME280;75005;50.966;11.344;2024-03-23T05:26:28;97948.44;;;7.54;92.55
84775;BME280;75005;50.966;11.344;2024-03-23T05:28:54;97943.09;;;7.62;91.10
84775;BME280;75005;50.966;11.344;2024-03-23T05:31:26;97937.72;;;7.64;92.41
84775;BME280;75005;50.966;11.344;2024-03-23T05:33:52;97932.38;;;7.65;91.56
84775;BME280;75005;50.966;11.344;2024-03-23T05:36:17;97929.19;;;7.70;91.76
84775;BME280;75005;50.966;11.344;2024-03-23T05:38:43;97915.25;;;7.71;92.04
84775;BME280;75005;50.966;11.344;2024-03-23T05:41:08;97910.50;;;7.75;91.84
84775;BME280;75005;50.966;11.344;2024-03-23T05:43:33;97910.31;;;7.83;91.34
84775;BME280;75005;50.966;11.344;2024-03-23T05:46:00;97896.94;;;7.72;91.58
84775;BME280;75005;50.966;11.344;2024-03-23T05:48:27;97892.97;;;7.77;91.89
84775;BME280;75005;50.966;11.344;2024-03-23T05:50:53;97897.34;;;7.76;91.54
84775;BME280;75005;50.966;11.344;2024-03-23T05:53:19;97909.91;;;7.86;91.09
84775;BME280;75005;50.966;11.344;2024-03-23T05:55:48;97896.56;;;7.76;91.56
84775;BME280;75005;50.966;11.344;2024-03-23T05:58:17;97897.34;;;7.83;91.24
84775;BME280;75005;50.966;11.344;2024-03-23T06:00:43;97905.34;;;7.88;91.91
84775;BME280;75005;50.966;11.344;2024-03-23T06:03:09;97900.75;;;7.90;91.71
84775;BME280;75005;50.966;11.344;2024-03-23T06:05:38;97878.25;;;7.90;90.62
84775;BME280;75005;50.966;11.344;2024-03-23T06:08:04;97872.09;;;7.98;90.81
84775;BME280;75005;50.966;11.344;2024-03-23T06:10:29;97874.28;;;7.94;91.01
84775;BME280;75005;50.966;11.344;2024-03-23T06:12:55;97879.66;;;7.99;91.25
84775;BME280;75005;50.966;11.344;2024-03-23T06:15:21;97871.69;;;8.01;91.73
84775;BME280;75005;50.966;11.344;2024-03-23T06:17:48;97853.56;;;8.01;91.86
84775;BME280;75005;50.966;11.344;2024-03-23T06:20:14;97846.41;;;8.10;91.18
84775;BME280;75005;50.966;11.344;2024-03-23T06:22:39;97832.81;;;7.88;92.37
84775;BME280;75005;50.966;11.344;2024-03-23T06:25:05;97826.84;;;7.87;91.76
84775;BME280;75005;50.966;11.344;2024-03-23T06:27:31;97838.44;;;8.04;91.29
84775;BME280;75005;50.966;11.344;2024-03-23T06:29:58;97835.25;;;8.16;91.06
84775;BME280;75005;50.966;11.344;2024-03-23T06:32:23;97830.06;;;8.22;90.33
84775;BME280;75005;50.966;11.344;2024-03-23T06:34:49;97841.44;;;8.54;89.96
84775;BME280;75005;50.966;11.344;2024-03-23T06:37:14;97843.63;;;8.70;89.24
84775;BME280;75005;50.966;11.344;2024-03-23T06:39:39;97840.81;;;8.79;88.99
84775;BME280;75005;50.966;11.344;2024-03-23T06:42:05;97829.44;;;8.73;88.67
84775;BME280;75005;50.966;11.344;2024-03-23T06:44:31;97831.88;;;8.42;91.07
84775;BME280;75005;50.966;11.344;2024-03-23T06:46:57;97843.03;;;8.16;91.03
84775;BME280;75005;50.966;11.344;2024-03-23T06:49:23;97903.06;;;8.32;91.07
84775;BME280;75005;50.966;11.344;2024-03-23T06:51:48;97906.22;;;8.15;90.55
84775;BME280;75005;50.966;11.344;2024-03-23T06:54:14;97907.38;;;7.99;91.18
84775;BME280;75005;50.966;11.344;2024-03-23T06:56:40;97904.75;;;7.79;92.04
84775;BME280;75005;50.966;11.344;2024-03-23T06:59:05;97918.03;;;7.69;92.26
84775;BME280;75005;50.966;11.344;2024-03-23T07:01:31;97912.81;;;7.56;92.23
84775;BME280;75005;50.966;11.344;2024-03-23T07:03:56;97906.59;;;7.10;89.36
84775;BME280;75005;50.966;11.344;2024-03-23T07:06:22;97925.91;;;6.79;92.00
84775;BME280;75005;50.966;11.344;2024-03-23T07:08:47;97932.34;;;6.62;92.13
84775;BME280;75005;50.966;11.344;2024-03-23T07:11:21;97936.47;;;6.56;93.01
84775;BME280;75005;50.966;11.344;2024-03-23T07:13:49;97941.88;;;6.40;92.35
84775;BME280;75005;50.966;11.344;2024-03-23T07:19:01;97970.00;;;6.28;92.45
84775;BME280;75005;50.966;11.344;2024-03-23T07:21:26;97958.72;;;6.15;92.91
84775;BME280;75005;50.966;11.344;2024-03-23T07:23:52;97983.31;;;6.11;93.27
84775;BME280;75005;50.966;11.344;2024-03-23T07:26:17;98024.28;;;5.99;92.49
84775;BME280;75005;50.966;11.344;2024-03-23T07:28:44;97981.22;;;5.85;91.46
84775;BME280;75005;50.966;11.344;2024-03-23T07:31:12;97999.38;;;5.77;91.30
84775;BME280;75005;50.966;11.344;2024-03-23T07:33:45;98010.41;;;5.70;91.73
84775;BME280;75005;50.966;11.344;2024-03-23T07:36:11;98033.72;;;5.62;91.07
84775;BME280;75005;50.966;11.344;2024-03-23T07:38:36;98046.63;;;5.62;91.08
84775;BME280;75005;50.966;11.344;2024-03-23T07:43:34;98080.69;;;5.43;90.89
84775;BME280;75005;50.966;11.344;2024-03-23T07:46:00;98100.50;;;5.28;90.67
84775;BME280;75005;50.966;11.344;2024-03-23T07:48:26;98106.34;;;5.22;90.37
84775;BME280;75005;50.966;11.344;2024-03-23T07:51:04;98120.94;;;5.29;91.38
84775;BME280;75005;50.966;11.344;2024-03-23T07:53:34;98130.91;;;5.32;90.78
84775;BME280;75005;50.966;11.344;2024-03-23T07:56:05;98139.81;;;5.30;90.69
84775;BME280;75005;50.966;11.344;2024-03-23T07:58:30;98141.53;;;5.37;91.09
84775;BME280;75005;50.966;11.344;2024-03-23T08:00:56;98148.69;;;5.50;91.61
84775;BME280;75005;50.966;11.344;2024-03-23T08:03:22;98153.00;;;5.35;90.74
84775;BME280;75005;50.966;11.344;2024-03-23T08:05:48;98150.47;;;5.27;90.27
84775;BME280;75005;50.966;11.344;2024-03-23T08:08:13;98168.59;;;5.42;90.58
84775;BME280;75005;50.966;11.344;2024-03-23T08:10:51;98184.06;;;5.42;89.71
84775;BME280;75005;50.966;11.344;2024-03-23T08:13:17;98185.03;;;5.41;89.42
84775;BME280;75005;50.966;11.344;2024-03-23T08:15:43;98181.66;;;5.40;89.81
84775;BME280;75005;50.966;11.344;2024-03-23T08:18:13;98181.19;;;5.36;90.94
84775;BME280;75005;50.966;11.344;2024-03-23T08:20:38;98176.69;;;5.16;89.88
84775;BME280;75005;50.966;11.344;2024-03-23T08:23:07;98195.91;;;5.05;89.81
84775;BME280;75005;50.966;11.344;2024-03-23T08:25:33;98190.91;;;4.81;88.78
84775;BME280;75005;50.966;11.344;2024-03-23T08:27:58;98189.13;;;4.81;90.05
84775;BME280;75005;50.966;11.344;2024-03-23T08:30:24;98212.22;;;4.97;90.01
84775;BME280;75005;50.966;11.344;2024-03-23T08:32:49;98214.38;;;4.86;89.55
84775;BME280;75005;50.966;11.344;2024-03-23T08:35:15;98238.09;;;4.81;89.60
84775;BME280;75005;50.966;11.344;2024-03-23T08:37:40;98251.25;;;4.47;88.95
84775;BME280;75005;50.966;11.344;2024-03-23T08:40:06;98264.16;;;4.39;89.85
84775;BME280;75005;50.966;11.344;2024-03-23T08:42:31;98262.38;;;4.40;90.71
84775;BME280;75005;50.966;11.344;2024-03-23T08:44:57;98277.81;;;4.48;91.02
84775;BME280;75005;50.966;11.344;2024-03-23T08:47:22;98283.00;;;4.31;89.89
84775;BME280;75005;50.966;11.344;2024-03-23T08:49:48;98296.53;;;4.25;90.56
84775;BME280;75005;50.966;11.344;2024-03-23T08:52:13;98310.84;;;4.36;90.78
84775;BME280;75005;50.966;11.344;2024-03-23T08:54:38;98328.56;;;4.31;90.81
84775;BME280;75005;50.966;11.344;2024-03-23T08:57:04;98332.25;;;4.20;90.68
84775;BME280;75005;50.966;11.344;2024-03-23T08:59:29;98325.31;;;4.13;90.34
84775;BME280;75005;50.966;11.344;2024-03-23T09:01:55;98328.72;;;4.05;91.15
84775;BME280;75005;50.966;11.344;2024-03-23T09:04:21;98327.25;;;4.19;90.83
84775;BME280;75005;50.966;11.344;2024-03-23T09:06:46;98319.22;;;4.22;90.13
84775;BME280;75005;50.966;11.344;2024-03-23T09:09:12;98326.81;;;4.07;89.78
84775;BME280;75005;50.966;11.344;2024-03-23T09:11:37;98349.31;;;4.05;90.84
84775;BME280;75005;50.966;11.344;2024-03-23T09:14:03;98359.91;;;4.10;91.21
84775;BME280;75005;50.966;11.344;2024-03-23T09:16:28;98352.06;;;4.03;90.22
84775;BME280;75005;50.966;11.344;2024-03-23T09:18:54;98356.88;;;3.98;90.52
84775;BME280;75005;50.966;11.344;2024-03-23T09:21:19;98346.75;;;3.97;91.24
84775;BME280;75005;50.966;11.344;2024-03-23T09:23:45;98361.72;;;4.01;90.98
84775;BME280;75005;50.966;11.344;2024-03-23T09:26:11;98372.00;;;4.18;91.64
84775;BME280;75005;50.966;11.344;2024-03-23T09:28:36;98368.94;;;4.30;91.48
84775;BME280;75005;50.966;11.344;2024-03-23T09:31:03;98379.88;;;4.57;91.79
84775;BME280;75005;50.966;11.344;2024-03-23T09:33:28;98371.34;;;4.48;90.98
84775;BME280;75005;50.966;11.344;2024-03-23T09:35:55;98360.06;;;4.65;91.79
84775;BME280;75005;50.966;11.344;2024-03-23T09:38:22;98379.22;;;4.71;89.83
84775;BME280;75005;50.966;11.344;2024-03-23T09:40:48;98376.59;;;4.87;90.83
84775;BME280;75005;50.966;11.344;2024-03-23T09:43:15;98388.69;;;4.87;90.20
84775;BME280;75005;50.966;11.344;2024-03-23T09:45:40;98389.78;;;5.00;90.21
84775;BME280;75005;50.966;11.344;2024-03-23T09:48:09;98386.69;;;5.13;90.30
84775;BME280;75005;50.966;11.344;2024-03-23T09:50:41;98408.72;;;5.24;90.64
84775;BME280;75005;50.966;11.344;2024-03-23T09:53:07;98401.03;;;5.16;88.45
84775;BME280;75005;50.966;11.344;2024-03-23T09:55:34;98401.78;;;5.24;89.67
84775;BME280;75005;50.966;11.344;2024-03-23T09:58:01;98398.22;;;5.33;88.90
84775;BME280;75005;50.966;11.344;2024-03-23T10:00:26;98409.75;;;5.15;88.89
84775;BME280;75005;50.966;11.344;2024-03-23T10:02:52;98408.94;;;5.14;88.25
84775;BME280;75005;50.966;11.344;2024-03-23T10:05:21;98421.44;;;5.33;89.57
84775;BME280;75005;50.966;11.344;2024-03-23T10:07:50;98425.47;;;5.36;88.28
84775;BME280;75005;50.966;11.344;2024-03-23T10:10:16;98447.63;;;5.14;87.40
84775;BME280;75005;50.966;11.344;2024-03-23T10:12:46;98435.31;;;5.24;88.70
84775;BME280;75005;50.966;11.344;2024-03-23T10:15:23;98444.91;;;5.55;87.86
84775;BME280;75005;50.966;11.344;2024-03-23T10:17:49;98448.31;;;5.55;86.11
84775;BME280;75005;50.966;11.344;2024-03-23T10:20:22;98455.59;;;5.83;85.77
84775;BME280;75005;50.966;11.344;2024-03-23T10:22:48;98437.28;;;6.00;84.26
84775;BME280;75005;50.966;11.344;2024-03-23T10:25:14;98437.91;;;5.71;84.60
84775;BME280;75005;50.966;11.344;2024-03-23T10:27:40;98431.72;;;5.81;85.06
84775;BME280;75005;50.966;11.344;2024-03-23T10:30:12;98441.69;;;6.46;85.61
84775;BME280;75005;50.966;11.344;2024-03-23T10:32:38;98429.78;;;6.59;84.40
84775;BME280;75005;50.966;11.344;2024-03-23T10:35:20;98417.84;;;6.73;82.06
84775;BME280;75005;50.966;11.344;2024-03-23T10:37:48;98415.88;;;6.98;82.85
84775;BME280;75005;50.966;11.344;2024-03-23T10:40:17;98414.34;;;7.33;82.34
84775;BME280;75005;50.966;11.344;2024-03-23T10:42:44;98410.06;;;7.11;80.87
84775;BME280;75005;50.966;11.344;2024-03-23T10:45:09;98411.00;;;6.80;79.66
84775;BME280;75005;50.966;11.344;2024-03-23T10:47:37;98415.72;;;6.62;82.04
84775;BME280;75005;50.966;11.344;2024-03-23T10:50:05;98407.88;;;6.70;80.04
84775;BME280;75005;50.966;11.344;2024-03-23T10:52:33;98411.59;;;7.05;79.31
84775;BME280;75005;50.966;11.344;2024-03-23T10:54:59;98405.38;;;6.62;78.90
84775;BME280;75005;50.966;11.344;2024-03-23T10:57:50;98419.16;;;6.92;77.60
84775;BME280;75005;50.966;11.344;2024-03-23T11:00:17;98429.16;;;6.95;76.81
84775;BME280;75005;50.966;11.344;2024-03-23T11:02:42;98415.44;;;6.71;77.14
84775;BME280;75005;50.966;11.344;2024-03-23T11:07:52;98415.31;;;7.47;76.73
84775;BME280;75005;50.966;11.344;2024-03-23T11:10:29;98417.81;;;7.91;74.71
84775;BME280;75005;50.966;11.344;2024-03-23T11:13:20;98422.69;;;8.15;73.01
84775;BME280;75005;50.966;11.344;2024-03-23T11:15:44;98414.00;;;8.44;72.53
84775;BME280;75005;50.966;11.344;2024-03-23T11:18:09;98424.94;;;8.25;72.31
84775;BME280;75005;50.966;11.344;2024-03-23T11:20:35;98423.16;;;8.04;72.20
84775;BME280;75005;50.966;11.344;2024-03-23T11:23:01;98412.28;;;7.58;70.32
84775;BME280;75005;50.966;11.344;2024-03-23T11:25:28;98422.84;;;7.42;73.17
84775;BME280;75005;50.966;11.344;2024-03-23T11:32:50;98427.81;;;7.14;74.73
84775;BME280;75005;50.966;11.344;2024-03-23T11:38:19;98416.31;;;7.82;73.13
84775;BME280;75005;50.966;11.344;2024-03-23T11:40:46;98412.72;;;8.33;74.51
84775;BME280;75005;50.966;11.344;2024-03-23T11:43:13;98417.03;;;8.48;71.64
84775;BME280;75005;50.966;11.344;2024-03-23T11:45:42;98402.66;;;8.73;68.26
84775;BME280;75005;50.966;11.344;2024-03-23T11:48:09;98414.94;;;8.36;68.71
84775;BME280;75005;50.966;11.344;2024-03-23T11:50:38;98420.50;;;8.19;69.19
84775;BME280;75005;50.966;11.344;2024-03-23T11:53:16;98420.78;;;7.88;66.45
84775;BME280;75005;50.966;11.344;2024-03-23T11:55:55;98419.69;;;7.97;67.94
84775;BME280;75005;50.966;11.344;2024-03-23T11:58:22;98422.19;;;7.90;68.04
84775;BME280;75005;50.966;11.344;2024-03-23T12:03:16;98420.03;;;7.72;68.94
84775;BME280;75005;50.966;11.344;2024-03-23T12:05:41;98418.34;;;7.65;69.81
84775;BME280;75005;50.966;11.344;2024-03-23T12:08:23;98430.84;;;7.61;70.61
84775;BME280;75005;50.966;11.344;2024-03-23T12:10:54;98432.19;;;7.57;70.39
84775;BME280;75005;50.966;11.344;2024-03-23T12:13:29;98432.00;;;7.74;72.41
84775;BME280;75005;50.966;11.344;2024-03-23T12:15:54;98433.97;;;7.71;70.33
84775;BME280;75005;50.966;11.344;2024-03-23T12:18:23;98431.94;;;7.88;70.19
84775;BME280;75005;50.966;11.344;2024-03-23T12:20:49;98433.34;;;7.69;70.57
84775;BME280;75005;50.966;11.344;2024-03-23T12:23:15;98426.53;;;7.68;70.16
84775;BME280;75005;50.966;11.344;2024-03-23T12:25:40;98410.03;;;7.69;71.09
84775;BME280;75005;50.966;11.344;2024-03-23T12:28:06;98419.53;;;7.84;72.35
84775;BME280;75005;50.966;11.344;2024-03-23T12:30:37;98414.69;;;7.59;72.95
84775;BME280;75005;50.966;11.344;2024-03-23T12:33:04;98414.69;;;7.59;72.49
84775;BME280;75005;50.966;11.344;2024-03-23T12:35:29;98424.41;;;7.72;73.27
84775;BME280;75005;50.966;11.344;2024-03-23T12:37:55;98410.75;;;7.63;73.60
84775;BME280;75005;50.966;11.344;2024-03-23T12:40:20;98423.25;;;7.45;74.56
84775;BME280;75005;50.966;11.344;2024-03-23T12:42:45;98414.59;;;7.67;73.58
84775;BME280;75005;50.966;11.344;2024-03-23T12:45:11;98413.91;;;7.80;74.05
84775;BME280;75005;50.966;11.344;2024-03-23T12:47:36;98395.41;;;7.83;71.03
84775;BME280;75005;50.966;11.344;2024-03-23T12:50:03;98384.31;;;7.68;72.21
84775;BME280;75005;50.966;11.344;2024-03-23T12:52:28;98389.03;;;7.79;71.26
84775;BME280;75005;50.966;11.344;2024-03-23T12:54:55;98389.19;;;8.14;66.89
84775;BME280;75005;50.966;11.344;2024-03-23T12:57:23;98381.72;;;8.47;67.55
84775;BME280;75005;50.966;11.344;2024-03-23T12:59:48;98380.94;;;9.09;64.28
84775;BME280;75005;50.966;11.344;2024-03-23T13:02:19;98376.56;;;9.57;61.70
84775;BME280;75005;50.966;11.344;2024-03-23T13:04:54;98374.00;;;9.63;58.02
84775;BME280;75005;50.966;11.344;2024-03-23T13:07:21;98365.31;;;10.83;57.25
84775;BME280;75005;50.966;11.344;2024-03-23T13:09:47;98359.97;;;11.43;53.42
84775;BME280;75005;50.966;11.344;2024-03-23T13:15:36;98360.84;;;12.06;51.50
84775;BME280;75005;50.966;11.344;2024-03-23T13:18:01;98369.19;;;11.45;52.78
84775;BME280;75005;50.966;11.344;2024-03-23T13:20:27;98385.91;;;11.11;52.15
84775;BME280;75005;50.966;11.344;2024-03-23T13:22:52;98388.19;;;10.35;52.96
84775;BME280;75005;50.966;11.344;2024-03-23T13:25:18;98377.75;;;10.81;51.13
84775;BME280;75005;50.966;11.344;2024-03-23T13:27:44;98387.88;;;11.22;51.56
84775;BME280;75005;50.966;11.344;2024-03-23T13:30:10;98375.25;;;12.15;48.65
84775;BME280;75005;50.966;11.344;2024-03-23T13:32:35;98370.72;;;12.79;47.13
84775;BME280;75005;50.966;11.344;2024-03-23T13:35:01;98358.34;;;12.92;45.74
84775;BME280;75005;50.966;11.344;2024-03-23T13:37:26;98360.00;;;13.05;43.86
84775;BME280;75005;50.966;11.344;2024-03-23T13:39:52;98366.31;;;12.79;45.86
84775;BME280;75005;50.966;11.344;2024-03-23T13:42:17;98353.53;;;12.71;44.03
84775;BME280;75005;50.966;11.344;2024-03-23T13:44:43;98349.81;;;13.22;44.58
84775;BME280;75005;50.966;11.344;2024-03-23T13:47:08;98346.44;;;13.81;42.56
84775;BME280;75005;50.966;11.344;2024-03-23T13:49:33;98348.72;;;14.19;41.10
84775;BME280;75005;50.966;11.344;2024-03-23T13:51:59;98331.41;;;14.07;39.95
84775;BME280;75005;50.966;11.344;2024-03-23T13:54:25;98344.59;;;14.65;42.17
84775;BME280;75005;50.966;11.344;2024-03-23T13:56:52;98352.25;;;13.83;40.94
84775;BME280;75005;50.966;11.344;2024-03-23T13:59:17;98339.28;;;11.92;43.27
84775;BME280;75005;50.966;11.344;2024-03-23T14:01:46;98341.91;;;12.67;41.76
84775;BME280;75005;50.966;11.344;2024-03-23T14:04:12;98332.63;;;12.71;41.78
84775;BME280;75005;50.966;11.344;2024-03-23T14:06:38;98355.81;;;11.80;44.70
84775;BME280;75005;50.966;11.344;2024-03-23T14:09:03;98352.50;;;11.01;45.74
84775;BME280;75005;50.966;11.344;2024-03-23T14:11:29;98345.75;;;10.74;47.79